createdAt,value
2022-12-03T00:02:21.531Z,81.95
2022-12-03T00:04:48.349Z,75.25
2022-12-03T00:07:15.133Z,83.50
2022-12-03T00:09:42.655Z,80.57
2022-12-03T00:12:09.445Z,76.22
2022-12-03T00:14:39.963Z,72.47
2022-12-03T00:17:09.760Z,69.22
2022-12-03T00:19:36.526Z,68.75
2022-12-03T00:22:03.287Z,73.68
2022-12-03T00:24:30.073Z,70.47
2022-12-03T00:26:56.873Z,65.57
2022-12-03T00:29:23.716Z,66.03
2022-12-03T00:31:50.479Z,71.68
2022-12-03T00:34:17.298Z,79.57
2022-12-03T00:36:44.062Z,71.38
2022-12-03T00:39:10.847Z,68.75
2022-12-03T00:41:37.599Z,71.38
2022-12-03T00:44:04.508Z,70.57
2022-12-03T00:46:31.344Z,74.68
2022-12-03T00:48:58.188Z,66.45
2022-12-03T00:51:24.944Z,61.72
2022-12-03T00:53:51.735Z,66.80
2022-12-03T00:56:18.491Z,66.30
2022-12-03T00:58:45.317Z,64.45
2022-12-03T01:01:12.075Z,60.47
2022-12-03T01:03:38.899Z,56.90
2022-12-03T01:06:05.805Z,56.00
2022-12-03T01:08:32.564Z,55.53
2022-12-03T01:10:59.386Z,60.00
2022-12-03T01:13:26.153Z,58.35
2022-12-03T01:15:53.632Z,62.53
2022-12-03T01:18:20.644Z,61.58
2022-12-03T01:20:47.456Z,59.58
2022-12-03T01:23:14.209Z,53.70
2022-12-03T01:25:41.004Z,60.15
2022-12-03T01:28:07.764Z,60.15
2022-12-03T01:30:54.599Z,61.38
2022-12-03T01:33:21.445Z,64.57
2022-12-03T01:35:48.198Z,56.47
2022-12-03T01:38:14.939Z,58.78
2022-12-03T01:40:41.796Z,62.60
2022-12-03T01:43:08.546Z,72.32
2022-12-03T01:45:35.424Z,59.33
2022-12-03T01:48:02.233Z,61.35
2022-12-03T01:50:33.407Z,64.05
2022-12-03T01:53:02.501Z,60.78
2022-12-03T01:55:29.756Z,70.90
2022-12-03T01:57:59.871Z,68.18
2022-12-03T02:00:28.233Z,65.78
2022-12-03T02:02:59.711Z,70.53
2022-12-03T02:05:29.440Z,66.38
2022-12-03T02:07:56.647Z,62.30
2022-12-03T02:10:32.194Z,65.05
2022-12-03T02:13:07.054Z,59.63
2022-12-03T02:15:34.968Z,63.45
2022-12-03T02:18:02.384Z,59.03
2022-12-03T02:20:33.452Z,57.25
2022-12-03T02:23:37.352Z,52.35
2022-12-03T02:26:04.189Z,57.25
2022-12-03T02:28:31.344Z,61.67
2022-12-03T02:30:58.204Z,62.55
2022-12-03T02:33:25.079Z,60.40
2022-12-03T02:35:51.858Z,56.83
2022-12-03T02:38:25.377Z,63.08
2022-12-03T02:40:56.685Z,58.72
2022-12-03T02:43:24.249Z,62.90
2022-12-03T02:45:55.259Z,61.60
2022-12-03T02:48:39.986Z,64.32
2022-12-03T02:51:10.347Z,61.10
2022-12-03T02:53:44.308Z,63.95
2022-12-03T02:58:43.062Z,56.05
2022-12-03T03:01:10.340Z,60.17
2022-12-03T03:03:38.222Z,64.78
2022-12-03T03:06:07.251Z,56.22
2022-12-03T03:08:35.295Z,56.03
2022-12-03T03:11:02.593Z,57.10
2022-12-03T03:13:31.333Z,51.40
2022-12-03T03:15:58.794Z,59.20
2022-12-03T03:18:25.758Z,56.45
2022-12-03T03:20:53.629Z,55.03
2022-12-03T03:23:23.543Z,59.33
2022-12-03T03:26:03.166Z,56.38
2022-12-03T03:28:31.285Z,54.75
2022-12-03T03:31:00.622Z,57.78
2022-12-03T03:33:27.691Z,53.95
2022-12-03T03:35:54.855Z,56.47
2022-12-03T03:38:23.410Z,61.28
2022-12-03T03:40:52.085Z,52.65
2022-12-03T03:43:20.849Z,50.78
2022-12-03T03:45:48.198Z,64.45
2022-12-03T03:48:15.539Z,55.13
2022-12-03T03:50:43.768Z,58.92
2022-12-03T03:53:12.174Z,50.88
2022-12-03T03:55:40.618Z,55.58
2022-12-03T03:58:07.699Z,52.28
2022-12-03T04:00:36.363Z,53.50
2022-12-03T04:03:04.907Z,55.22
2022-12-03T04:05:31.897Z,56.92
2022-12-03T04:07:59.222Z,67.03
2022-12-03T04:10:44.451Z,54.67
2022-12-03T04:13:11.213Z,52.08
2022-12-03T04:15:37.967Z,55.17
2022-12-03T04:18:31.166Z,55.95
2022-12-03T04:21:17.895Z,61.13
2022-12-03T04:23:44.731Z,60.25
2022-12-03T04:26:29.921Z,59.75
2022-12-03T04:28:56.722Z,60.47
2022-12-03T04:31:41.859Z,57.45
2022-12-03T04:34:28.587Z,67.07
2022-12-03T04:36:55.683Z,60.05
2022-12-03T04:39:22.659Z,59.67
2022-12-03T04:41:49.433Z,58.17
2022-12-03T04:44:36.207Z,57.95
2022-12-03T04:47:13.448Z,64.35
2022-12-03T04:49:44.646Z,64.75
2022-12-03T04:52:13.486Z,65.55
2022-12-03T04:54:41.169Z,73.20
2022-12-03T04:57:09.389Z,80.22
2022-12-03T04:59:37.080Z,70.80
2022-12-03T05:02:05.762Z,76.65
2022-12-03T05:04:32.798Z,74.30
2022-12-03T05:06:59.556Z,77.28
2022-12-03T05:09:26.362Z,75.50
2022-12-03T05:11:53.144Z,74.72
2022-12-03T05:14:19.935Z,75.72
2022-12-03T05:16:46.800Z,76.20
2022-12-03T05:19:13.625Z,66.65
2022-12-03T05:21:40.415Z,72.70
2022-12-03T05:24:07.336Z,76.15
2022-12-03T05:26:34.218Z,71.47
2022-12-03T05:29:00.996Z,67.95
2022-12-03T05:31:27.984Z,68.50
2022-12-03T05:33:55.073Z,78.78
2022-12-03T05:36:21.925Z,72.18
2022-12-03T05:38:48.785Z,75.63
2022-12-03T05:41:34.109Z,74.38
2022-12-03T05:44:00.978Z,68.40
2022-12-03T05:46:27.887Z,75.93
2022-12-03T05:48:54.729Z,71.70
2022-12-03T05:51:21.554Z,77.13
2022-12-03T05:53:48.362Z,78.65
2022-12-03T05:56:15.144Z,80.40
2022-12-03T05:58:41.936Z,79.72
2022-12-03T06:01:08.709Z,74.57
2022-12-03T06:03:35.580Z,76.60
2022-12-03T06:06:02.533Z,74.10
2022-12-03T06:08:29.330Z,72.47
2022-12-03T06:10:56.112Z,79.15
2022-12-03T06:13:22.874Z,77.65
2022-12-03T06:15:49.780Z,75.75
2022-12-03T06:18:16.625Z,80.43
2022-12-03T06:20:43.399Z,79.63
2022-12-03T06:23:10.252Z,80.40
2022-12-03T06:25:37.083Z,80.30
2022-12-03T06:28:04.019Z,75.65
2022-12-03T06:30:30.812Z,75.38
2022-12-03T06:32:57.655Z,75.38
2022-12-03T06:35:24.475Z,79.93
2022-12-03T06:37:51.241Z,73.60
2022-12-03T06:40:18.104Z,70.30
2022-12-03T06:42:44.918Z,79.72
2022-12-03T06:45:11.951Z,77.60
2022-12-03T06:47:38.870Z,77.82
2022-12-03T06:50:08.991Z,72.68
2022-12-03T06:52:36.265Z,82.03
2022-12-03T06:55:03.713Z,78.28
2022-12-03T06:57:30.596Z,77.72
2022-12-03T06:59:57.418Z,80.40
2022-12-03T07:02:24.556Z,84.13
2022-12-03T07:04:51.491Z,80.65
2022-12-03T07:07:18.305Z,79.10
2022-12-03T07:09:45.104Z,73.90
2022-12-03T07:12:11.890Z,78.68
2022-12-03T07:14:38.830Z,72.13
2022-12-03T07:17:05.650Z,80.55
2022-12-03T07:19:33.177Z,78.90
2022-12-03T07:22:00.357Z,82.03
2022-12-03T07:24:27.555Z,81.43
2022-12-03T07:26:54.468Z,74.65
2022-12-03T07:29:21.270Z,87.22
2022-12-03T07:31:48.194Z,84.00
2022-12-03T07:34:15.066Z,81.13
2022-12-03T07:36:41.903Z,85.13
2022-12-03T07:39:08.733Z,80.75
2022-12-03T07:41:35.564Z,79.30
2022-12-03T07:44:02.378Z,84.28
2022-12-03T07:46:29.204Z,88.25
2022-12-03T07:48:56.015Z,80.07
2022-12-03T07:51:26.198Z,86.55
2022-12-03T07:53:57.373Z,80.35
2022-12-03T07:56:24.151Z,79.45
2022-12-03T07:58:50.962Z,89.85
2022-12-03T08:01:17.889Z,86.30
2022-12-03T08:03:45.155Z,82.97
2022-12-03T08:06:11.973Z,78.95
2022-12-03T08:08:41.505Z,74.85
2022-12-03T08:11:14.761Z,76.38
2022-12-03T08:13:41.561Z,70.90
2022-12-03T08:16:18.044Z,76.00
2022-12-03T08:18:46.493Z,80.07
2022-12-03T08:21:16.387Z,78.50
2022-12-03T08:23:43.634Z,79.05
2022-12-03T08:26:25.055Z,75.35
2022-12-03T08:28:55.143Z,77.75
2022-12-03T08:31:32.465Z,81.38
2022-12-03T08:34:22.403Z,84.60
2022-12-03T08:36:56.242Z,73.68
2022-12-03T08:39:31.500Z,83.90
2022-12-03T08:42:41.704Z,73.32
2022-12-03T08:45:32.165Z,81.95
2022-12-03T08:48:07.830Z,81.90
2022-12-03T08:50:42.938Z,84.55
2022-12-03T08:53:46.600Z,78.38
2022-12-03T08:56:26.043Z,76.47
2022-12-03T08:59:08.059Z,75.60
2022-12-03T09:01:42.426Z,69.13
2022-12-03T09:04:34.763Z,74.70
2022-12-03T09:07:01.737Z,78.47
2022-12-03T09:09:28.943Z,80.68
2022-12-03T09:11:56.388Z,76.80
2022-12-03T09:14:23.591Z,81.13
2022-12-03T09:16:55.390Z,77.28
2022-12-03T09:19:24.458Z,89.55
2022-12-03T09:21:51.965Z,84.97
2022-12-03T09:24:18.818Z,79.85
2022-12-03T09:26:45.713Z,81.07
2022-12-03T09:29:13.119Z,88.40
2022-12-03T09:31:40.700Z,92.32
2022-12-03T09:34:07.903Z,93.32
2022-12-03T09:36:35.063Z,89.13
2022-12-03T09:39:02.143Z,92.50
2022-12-03T09:41:29.144Z,85.63
2022-12-03T09:44:05.512Z,90.22
2022-12-03T09:46:35.172Z,85.25
2022-12-03T09:49:03.488Z,92.72
2022-12-03T09:51:39.613Z,89.30
2022-12-03T09:54:07.620Z,94.70
2022-12-03T09:56:37.773Z,87.93
2022-12-03T09:59:14.505Z,90.53
2022-12-03T10:01:41.752Z,91.55
2022-12-03T10:04:09.227Z,97.72
2022-12-03T10:06:38.834Z,95.50
2022-12-03T10:09:11.795Z,90.63
2022-12-03T10:11:39.062Z,98.78
2022-12-03T10:14:06.447Z,94.70
2022-12-03T10:16:34.184Z,86.82
2022-12-03T10:19:01.586Z,89.07
2022-12-03T10:21:39.230Z,89.88
2022-12-03T10:24:23.441Z,87.13
2022-12-03T10:26:53.589Z,88.28
2022-12-03T10:29:33.974Z,90.68
2022-12-03T10:32:07.099Z,90.20
2022-12-03T10:34:40.183Z,92.75
2022-12-03T10:37:19.796Z,88.70
2022-12-03T10:40:20.671Z,84.35
2022-12-03T10:43:13.092Z,80.72
2022-12-03T10:46:04.846Z,91.55
2022-12-03T10:49:11.174Z,82.30
2022-12-03T10:51:50.993Z,85.30
2022-12-03T10:58:41.302Z,81.50
2022-12-03T11:01:51.008Z,83.32
2022-12-03T11:04:32.099Z,85.65
2022-12-03T11:07:25.117Z,84.97
2022-12-03T11:09:56.046Z,90.85
2022-12-03T11:15:44.283Z,87.05
2022-12-03T11:18:13.322Z,87.30
2022-12-03T11:21:14.281Z,85.80
2022-12-03T11:23:47.263Z,85.85
2022-12-03T11:26:43.289Z,87.17
2022-12-03T11:29:14.635Z,81.03
2022-12-03T11:31:42.529Z,85.35
2022-12-03T11:34:18.175Z,78.47
2022-12-03T11:37:10.056Z,84.15
2022-12-03T11:39:52.670Z,78.60
2022-12-03T11:42:25.235Z,81.57
2022-12-03T11:45:08.360Z,85.13
2022-12-03T11:47:39.965Z,78.32
2022-12-03T11:50:39.692Z,76.32
2022-12-03T11:53:23.062Z,81.95
2022-12-03T11:56:11.070Z,79.57
2022-12-03T11:58:45.214Z,78.97
2022-12-03T12:01:14.212Z,84.38
2022-12-03T12:03:50.349Z,77.35
2022-12-03T12:06:20.551Z,80.60
2022-12-03T12:08:58.482Z,80.88
2022-12-03T12:11:36.443Z,81.03
2022-12-03T12:14:13.346Z,80.25
2022-12-03T12:16:50.764Z,82.97
2022-12-03T12:19:42.883Z,82.30
2022-12-03T12:22:19.244Z,79.65
2022-12-03T12:24:50.712Z,79.80
2022-12-03T12:27:45.010Z,84.30
2022-12-03T12:30:20.467Z,79.43
2022-12-03T12:33:01.798Z,78.03
2022-12-03T12:35:32.444Z,81.22
2022-12-03T12:38:10.680Z,78.07
2022-12-03T12:40:44.552Z,74.60
2022-12-03T12:43:24.005Z,83.40
2022-12-03T12:45:58.380Z,83.13
2022-12-03T12:48:28.613Z,81.43
2022-12-03T12:51:12.893Z,84.95
2022-12-03T12:53:42.803Z,81.40
2022-12-03T12:56:32.576Z,86.80
2022-12-03T12:59:20.676Z,81.88
2022-12-03T13:01:49.366Z,90.55
2022-12-03T13:04:20.497Z,78.88
2022-12-03T13:06:49.607Z,81.40
2022-12-03T13:09:18.972Z,77.85
2022-12-03T13:11:52.729Z,84.53
2022-12-03T13:14:31.320Z,91.30
2022-12-03T13:17:01.597Z,81.82
2022-12-03T13:19:43.515Z,80.07
2022-12-03T13:22:25.413Z,83.15
2022-12-03T13:24:55.980Z,79.88
2022-12-03T13:27:30.311Z,83.43
2022-12-03T13:30:03.647Z,83.53
2022-12-03T13:32:37.765Z,85.13
2022-12-03T13:37:34.732Z,79.10
2022-12-03T13:40:31.735Z,85.07
2022-12-03T13:42:59.391Z,84.35
2022-12-03T13:45:36.787Z,88.57
2022-12-03T13:48:23.153Z,83.20
2022-12-03T13:50:51.725Z,78.68
2022-12-03T13:53:31.727Z,78.95
2022-12-03T13:56:27.777Z,81.30
2022-12-03T13:58:56.334Z,77.68
2022-12-03T14:01:23.302Z,81.63
2022-12-03T14:03:50.483Z,83.30
2022-12-03T14:06:17.417Z,81.07
2022-12-03T14:08:44.469Z,79.97
2022-12-03T14:11:31.344Z,82.78
2022-12-03T14:13:58.112Z,81.03
2022-12-03T14:16:24.940Z,81.00
2022-12-03T14:18:51.741Z,78.97
2022-12-03T14:21:18.563Z,80.85
2022-12-03T14:23:45.401Z,80.38
2022-12-03T14:26:12.180Z,81.95
2022-12-03T14:28:38.940Z,75.97
2022-12-03T14:31:05.824Z,80.18
2022-12-03T14:33:32.643Z,81.47
2022-12-03T14:35:59.531Z,84.20
2022-12-03T14:38:26.340Z,82.25
2022-12-03T14:40:53.133Z,78.30
2022-12-03T14:43:19.917Z,76.40
2022-12-03T14:45:46.782Z,82.50
2022-12-03T14:48:13.605Z,75.47
2022-12-03T14:50:40.399Z,82.53
2022-12-03T14:53:07.157Z,78.25
2022-12-03T14:55:33.944Z,81.00
2022-12-03T14:58:00.711Z,74.47
2022-12-03T15:00:27.480Z,85.18
2022-12-03T15:02:54.301Z,74.00
2022-12-03T15:05:28.048Z,78.45
2022-12-03T15:07:55.542Z,79.22
2022-12-03T15:10:22.540Z,81.55
2022-12-03T15:12:49.300Z,78.93
2022-12-03T15:15:16.144Z,81.70
2022-12-03T15:17:45.516Z,81.20
2022-12-03T15:20:12.946Z,76.18
2022-12-03T15:22:39.711Z,71.93
2022-12-03T15:25:07.660Z,72.40
2022-12-03T15:27:34.446Z,80.95
2022-12-03T15:30:01.226Z,82.28
2022-12-03T15:32:28.027Z,76.22
2022-12-03T15:34:54.812Z,79.50
2022-12-03T15:37:21.586Z,74.20
2022-12-03T15:39:52.818Z,88.60
2022-12-03T15:42:19.747Z,72.72
2022-12-03T15:44:46.525Z,77.22
2022-12-03T15:47:13.311Z,80.45
2022-12-03T15:49:40.133Z,77.47
2022-12-03T15:52:07.825Z,74.00
2022-12-03T15:54:34.653Z,75.78
2022-12-03T15:57:01.538Z,76.03
2022-12-03T15:59:28.328Z,77.00
2022-12-03T16:01:55.180Z,74.88
2022-12-03T16:04:21.986Z,77.07
2022-12-03T16:06:48.785Z,77.05
2022-12-03T16:09:27.002Z,76.10
2022-12-03T16:11:54.751Z,77.93
2022-12-03T16:14:21.623Z,77.97
2022-12-03T16:16:48.406Z,82.57
2022-12-03T16:19:15.301Z,73.18
2022-12-03T16:21:42.040Z,76.85
2022-12-03T16:24:08.820Z,74.32
2022-12-03T16:26:35.652Z,76.90
2022-12-03T16:29:02.496Z,73.97
2022-12-03T16:31:29.521Z,69.95
2022-12-03T16:33:56.412Z,76.93
2022-12-03T16:36:23.185Z,75.60
2022-12-03T16:38:49.938Z,75.25
2022-12-03T16:41:16.757Z,78.05
2022-12-03T16:43:46.228Z,75.70
2022-12-03T16:46:18.653Z,74.07
2022-12-03T16:48:46.934Z,72.18
2022-12-03T16:51:13.796Z,71.38
2022-12-03T16:53:40.599Z,78.30
2022-12-03T16:56:07.653Z,70.55
2022-12-03T16:58:34.434Z,70.55
2022-12-03T17:01:01.713Z,66.47
2022-12-03T17:03:33.647Z,64.85
2022-12-03T17:06:01.767Z,67.15
2022-12-03T17:08:28.652Z,64.38
2022-12-03T17:10:55.664Z,61.53
2022-12-03T17:13:25.630Z,66.03
2022-12-03T17:15:52.537Z,64.60
2022-12-03T17:18:19.396Z,68.93
2022-12-03T17:20:46.138Z,63.42
2022-12-03T17:23:12.916Z,61.13
2022-12-03T17:25:39.691Z,64.47
2022-12-03T17:28:06.464Z,64.38
2022-12-03T17:30:33.304Z,62.58
2022-12-03T17:33:00.083Z,63.78
2022-12-03T17:35:28.485Z,68.95
2022-12-03T17:37:55.822Z,72.20
2022-12-03T17:40:23.678Z,72.22
2022-12-03T17:42:50.467Z,73.60
2022-12-03T17:45:17.379Z,67.38
2022-12-03T17:47:44.587Z,69.63
2022-12-03T17:50:11.892Z,68.20
2022-12-03T17:52:38.640Z,69.97
2022-12-03T17:55:12.766Z,69.30
2022-12-03T17:57:41.245Z,65.90
2022-12-03T18:00:08.943Z,66.38
2022-12-03T18:02:35.732Z,69.30
2022-12-03T18:05:02.548Z,68.53
2022-12-03T18:07:29.320Z,72.07
2022-12-03T18:09:56.340Z,73.80
2022-12-03T18:12:23.422Z,70.40
2022-12-03T18:14:50.171Z,67.18
2022-12-03T18:17:16.954Z,66.50
2022-12-03T18:19:43.847Z,70.72
2022-12-03T18:22:11.146Z,66.35
2022-12-03T18:24:37.995Z,67.18
2022-12-03T18:27:04.802Z,63.63
2022-12-03T18:29:31.860Z,72.07
2022-12-03T18:31:58.687Z,69.15
2022-12-03T18:34:25.561Z,70.35
2022-12-03T18:36:52.378Z,75.72
2022-12-03T18:39:26.827Z,73.20
2022-12-03T18:41:54.235Z,69.40
2022-12-03T18:44:21.414Z,71.20
2022-12-03T18:46:55.573Z,71.20
2022-12-03T18:49:22.692Z,79.63
2022-12-03T18:51:53.293Z,80.05
2022-12-03T18:54:24.349Z,78.20
2022-12-03T18:56:51.108Z,77.28
2022-12-03T18:59:17.936Z,78.18
2022-12-03T19:01:44.989Z,76.10
2022-12-03T19:04:11.863Z,71.65
2022-12-03T19:06:38.645Z,76.15
2022-12-03T19:09:05.428Z,76.65
2022-12-03T19:11:33.913Z,70.25
2022-12-03T19:14:02.712Z,77.35
2022-12-03T19:16:29.584Z,78.07
2022-12-03T19:18:57.081Z,76.78
2022-12-03T19:21:23.905Z,76.70
2022-12-03T19:24:16.409Z,78.47
2022-12-03T19:26:37.504Z,84.47
2022-12-03T19:29:04.367Z,82.88
2022-12-03T19:31:33.288Z,85.47
2022-12-03T19:34:00.311Z,76.88
2022-12-03T19:36:30.269Z,79.00
2022-12-03T19:38:59.426Z,76.53
2022-12-03T19:41:30.324Z,77.40
2022-12-03T19:43:57.964Z,78.45
2022-12-03T19:46:29.138Z,80.97
2022-12-03T19:48:56.184Z,83.55
2022-12-03T19:51:34.715Z,76.97
2022-12-03T19:54:06.419Z,74.30
2022-12-03T19:56:34.382Z,72.95
2022-12-03T19:59:01.510Z,79.82
2022-12-03T20:01:31.468Z,80.43
2022-12-03T20:04:00.624Z,79.90
2022-12-03T20:06:33.038Z,75.82
2022-12-03T20:09:11.361Z,75.78
2022-12-03T20:11:40.656Z,75.45
2022-12-03T20:14:12.817Z,75.40
2022-12-03T20:16:39.913Z,78.40
2022-12-03T20:19:08.441Z,83.90
2022-12-03T20:21:37.313Z,78.35
2022-12-03T20:24:05.236Z,79.38
2022-12-03T20:26:32.745Z,82.70
2022-12-03T20:28:59.974Z,74.70
2022-12-03T20:31:29.952Z,76.47
2022-12-03T20:34:01.389Z,76.20
2022-12-03T20:36:30.277Z,79.20
2022-12-03T20:39:00.716Z,78.15
2022-12-03T20:41:27.871Z,82.13
2022-12-03T20:43:54.866Z,74.90
2022-12-03T20:46:26.106Z,75.13
2022-12-03T20:48:54.056Z,79.75
2022-12-03T20:51:24.941Z,80.18
2022-12-03T20:53:52.477Z,80.65
2022-12-03T20:56:23.432Z,80.15
2022-12-03T20:58:50.713Z,76.45
2022-12-03T21:01:21.767Z,73.43
2022-12-03T21:03:50.189Z,77.75
2022-12-03T21:06:17.827Z,74.18
2022-12-03T21:08:45.179Z,80.22
2022-12-03T21:11:24.157Z,76.70
2022-12-03T21:13:51.663Z,80.90
2022-12-03T21:16:52.027Z,81.53
2022-12-03T21:19:12.456Z,81.45
2022-12-03T21:21:39.206Z,81.15
2022-12-03T21:24:06.327Z,89.35
2022-12-03T21:26:33.913Z,85.20
2022-12-03T21:29:00.684Z,77.13
2022-12-03T21:31:27.627Z,86.60
2022-12-03T21:33:56.354Z,85.10
2022-12-03T21:36:25.037Z,87.50
2022-12-03T21:38:52.626Z,79.35
2022-12-03T21:41:19.595Z,88.15
2022-12-03T21:43:46.366Z,81.20
2022-12-03T21:47:10.952Z,86.00
2022-12-03T21:49:02.013Z,78.85
2022-12-03T21:51:28.879Z,87.72
2022-12-03T21:53:55.724Z,89.43
2022-12-03T21:56:22.580Z,89.10
2022-12-03T21:58:49.397Z,85.13
2022-12-03T22:01:23.482Z,85.28
2022-12-03T22:03:51.129Z,83.05
2022-12-03T22:06:18.783Z,84.13
2022-12-03T22:08:45.966Z,84.32
2022-12-03T22:11:23.550Z,82.60
2022-12-03T22:13:51.345Z,87.50
2022-12-03T22:16:20.885Z,89.75
2022-12-03T22:18:48.292Z,89.93
2022-12-03T22:21:19.768Z,97.00
2022-12-03T22:23:46.576Z,89.68
2022-12-03T22:26:16.063Z,92.35
2022-12-03T22:28:48.308Z,88.97
2022-12-03T22:31:17.183Z,98.03
2022-12-03T22:33:47.929Z,94.88
2022-12-03T22:36:20.526Z,98.55
2022-12-03T22:38:48.859Z,92.38
2022-12-03T22:41:16.289Z,92.10
2022-12-03T22:43:43.237Z,89.78
2022-12-03T22:46:12.404Z,88.93
2022-12-03T22:48:41.376Z,95.80
2022-12-03T22:51:21.009Z,89.65
2022-12-03T22:53:48.744Z,90.93
2022-12-03T22:56:17.104Z,94.28
2022-12-03T22:58:43.892Z,87.93
2022-12-03T23:01:27.830Z,88.57
2022-12-03T23:03:54.938Z,92.93
2022-12-03T23:06:22.763Z,90.93
2022-12-03T23:08:50.484Z,94.05
2022-12-03T23:11:18.011Z,90.03
2022-12-03T23:13:44.833Z,99.15
2022-12-03T23:16:26.201Z,93.43
2022-12-03T23:18:53.383Z,95.30
2022-12-03T23:21:29.378Z,94.25
2022-12-03T23:23:58.967Z,87.97
2022-12-03T23:26:26.700Z,92.50
